sensor_id;sensor_type;location;lat;lon;timestamp;P1;durP1;ratioP1;P2;durP2;ratioP2
31596;SDS011;18201;50.978;7.034;2023-05-29T01:16:21;9.82;;;5.22;;
31596;SDS011;18201;50.978;7.034;2023-05-29T01:17:04;5.65;;;4.93;;
31596;SDS011;18201;50.978;7.034;2023-05-29T01:17:44;8.32;;;5.00;;
31596;SDS011;18201;50.978;7.034;2023-05-29T01:18:26;11.20;;;5.78;;
31596;SDS011;18201;50.978;7.034;2023-05-29T01:19:10;9.02;;;5.25;;
31596;SDS011;18201;50.978;7.034;2023-05-29T01:20:08;7.90;;;5.07;;
31596;SDS011;18201;50.978;7.034;2023-05-29T01:20:48;12.18;;;5.82;;
31596;SDS011;18201;50.978;7.034;2023-05-29T01:21:26;8.73;;;5.68;;
31596;SDS011;18201;50.978;7.034;2023-05-29T01:22:11;9.07;;;5.30;;
31596;SDS011;18201;50.978;7.034;2023-05-29T01:23:06;9.07;;;5.30;;
31596;SDS011;18201;50.978;7.034;2023-05-29T01:23:48;9.53;;;4.90;;
31596;SDS011;18201;50.978;7.034;2023-05-29T01:24:25;8.32;;;5.35;;
31596;SDS011;18201;50.978;7.034;2023-05-29T01:25:04;9.27;;;5.10;;
31596;SDS011;18201;50.978;7.034;2023-05-29T01:25:50;9.82;;;4.78;;
31596;SDS011;18201;50.978;7.034;2023-05-29T01:26:45;11.32;;;5.72;;
31596;SDS011;18201;50.978;7.034;2023-05-29T01:27:19;7.68;;;5.90;;
31596;SDS011;18201;50.978;7.034;2023-05-29T01:27:54;8.32;;;5.40;;
31596;SDS011;18201;50.978;7.034;2023-05-29T01:29:02;7.53;;;5.10;;
31596;SDS011;18201;50.978;7.034;2023-05-29T01:29:38;5.97;;;4.53;;
31596;SDS011;18201;50.978;7.034;2023-05-29T01:30:12;6.88;;;5.47;;
31596;SDS011;18201;50.978;7.034;2023-05-29T01:30:45;12.38;;;5.78;;
31596;SDS011;18201;50.978;7.034;2023-05-29T01:31:19;5.70;;;4.78;;
31596;SDS011;18201;50.978;7.034;2023-05-29T01:31:53;9.38;;;5.38;;
31596;SDS011;18201;50.978;7.034;2023-05-29T01:32:26;8.13;;;5.20;;
31596;SDS011;18201;50.978;7.034;2023-05-29T01:32:58;7.43;;;5.43;;
31596;SDS011;18201;50.978;7.034;2023-05-29T01:33:29;8.85;;;5.03;;
31596;SDS011;18201;50.978;7.034;2023-05-29T01:34:00;10.07;;;5.32;;
31596;SDS011;18201;50.978;7.034;2023-05-29T01:34:32;10.68;;;5.20;;
31596;SDS011;18201;50.978;7.034;2023-05-29T01:35:04;6.35;;;5.18;;
31596;SDS011;18201;50.978;7.034;2023-05-29T01:35:35;7.03;;;4.63;;
31596;SDS011;18201;50.978;7.034;2023-05-29T01:36:07;6.30;;;5.10;;
31596;SDS011;18201;50.978;7.034;2023-05-29T01:36:38;11.30;;;5.85;;
31596;SDS011;18201;50.978;7.034;2023-05-29T01:37:09;8.25;;;4.93;;
31596;SDS011;18201;50.978;7.034;2023-05-29T01:37:41;9.82;;;4.82;;
31596;SDS011;18201;50.978;7.034;2023-05-29T01:38:12;8.50;;;4.45;;
31596;SDS011;18201;50.978;7.034;2023-05-29T01:38:43;8.88;;;4.70;;
31596;SDS011;18201;50.978;7.034;2023-05-29T01:39:14;8.02;;;5.20;;
31596;SDS011;18201;50.978;7.034;2023-05-29T01:39:46;10.13;;;5.35;;
31596;SDS011;18201;50.978;7.034;2023-05-29T01:40:17;8.02;;;4.80;;
31596;SDS011;18201;50.978;7.034;2023-05-29T01:40:48;8.68;;;5.15;;
31596;SDS011;18201;50.978;7.034;2023-05-29T01:41:21;9.02;;;4.95;;
31596;SDS011;18201;50.978;7.034;2023-05-29T01:41:55;6.70;;;5.00;;
31596;SDS011;18201;50.978;7.034;2023-05-29T02:10:41;8.55;;;4.88;;
31596;SDS011;18201;50.978;7.034;2023-05-29T02:11:13;7.47;;;5.07;;
31596;SDS011;18201;50.978;7.034;2023-05-29T02:11:44;8.32;;;4.63;;
31596;SDS011;18201;50.978;7.034;2023-05-29T02:12:15;9.90;;;5.18;;
31596;SDS011;18201;50.978;7.034;2023-05-29T02:12:47;7.65;;;4.97;;
31596;SDS011;18201;50.978;7.034;2023-05-29T02:13:18;7.45;;;5.20;;
31596;SDS011;18201;50.978;7.034;2023-05-29T02:13:50;7.75;;;4.72;;
31596;SDS011;18201;50.978;7.034;2023-05-29T02:14:22;6.30;;;4.47;;
31596;SDS011;18201;50.978;7.034;2023-05-29T02:14:54;10.27;;;4.57;;
31596;SDS011;18201;50.978;7.034;2023-05-29T02:15:26;7.50;;;4.35;;
31596;SDS011;18201;50.978;7.034;2023-05-29T02:15:57;7.28;;;5.13;;
31596;SDS011;18201;50.978;7.034;2023-05-29T02:16:28;7.05;;;4.75;;
31596;SDS011;18201;50.978;7.034;2023-05-29T02:16:59;8.15;;;4.78;;
31596;SDS011;18201;50.978;7.034;2023-05-29T02:17:32;9.80;;;4.93;;
31596;SDS011;18201;50.978;7.034;2023-05-29T02:18:04;6.40;;;4.90;;
31596;SDS011;18201;50.978;7.034;2023-05-29T02:18:35;9.70;;;5.07;;
31596;SDS011;18201;50.978;7.034;2023-05-29T02:19:07;7.78;;;4.53;;
31596;SDS011;18201;50.978;7.034;2023-05-29T03:55:22;12.88;;;6.70;;
31596;SDS011;18201;50.978;7.034;2023-05-29T03:55:54;15.00;;;6.43;;
31596;SDS011;18201;50.978;7.034;2023-05-29T03:56:25;14.70;;;7.25;;
31596;SDS011;18201;50.978;7.034;2023-05-29T03:56:56;15.32;;;6.65;;
31596;SDS011;18201;50.978;7.034;2023-05-29T03:57:27;13.23;;;7.35;;
31596;SDS011;18201;50.978;7.034;2023-05-29T03:57:59;16.77;;;6.78;;
31596;SDS011;18201;50.978;7.034;2023-05-29T03:58:30;12.93;;;6.90;;
31596;SDS011;18201;50.978;7.034;2023-05-29T03:59:00;22.98;;;7.00;;
31596;SDS011;18201;50.978;7.034;2023-05-29T03:59:32;17.83;;;7.35;;
31596;SDS011;18201;50.978;7.034;2023-05-29T04:00:03;13.35;;;6.38;;
31596;SDS011;18201;50.978;7.034;2023-05-29T04:00:36;15.35;;;6.47;;
31596;SDS011;18201;50.978;7.034;2023-05-29T04:01:07;14.10;;;6.05;;
31596;SDS011;18201;50.978;7.034;2023-05-29T04:01:39;14.10;;;7.35;;
31596;SDS011;18201;50.978;7.034;2023-05-29T04:02:10;16.23;;;6.45;;
31596;SDS011;18201;50.978;7.034;2023-05-29T04:02:41;11.98;;;6.85;;
31596;SDS011;18201;50.978;7.034;2023-05-29T04:03:12;14.25;;;6.78;;
31596;SDS011;18201;50.978;7.034;2023-05-29T04:03:43;13.07;;;5.65;;
31596;SDS011;18201;50.978;7.034;2023-05-29T04:04:15;15.05;;;6.47;;
31596;SDS011;18201;50.978;7.034;2023-05-29T04:04:47;17.70;;;6.93;;
31596;SDS011;18201;50.978;7.034;2023-05-29T04:05:18;10.75;;;5.78;;
31596;SDS011;18201;50.978;7.034;2023-05-29T04:05:49;17.70;;;7.18;;
31596;SDS011;18201;50.978;7.034;2023-05-29T04:06:20;14.63;;;6.88;;
31596;SDS011;18201;50.978;7.034;2023-05-29T04:55:15;13.77;;;7.20;;
31596;SDS011;18201;50.978;7.034;2023-05-29T04:55:47;17.67;;;7.85;;
31596;SDS011;18201;50.978;7.034;2023-05-29T04:56:18;23.23;;;8.55;;
31596;SDS011;18201;50.978;7.034;2023-05-29T04:56:49;16.35;;;7.45;;
31596;SDS011;18201;50.978;7.034;2023-05-29T04:57:21;15.98;;;8.00;;
31596;SDS011;18201;50.978;7.034;2023-05-29T04:57:52;15.95;;;8.02;;
31596;SDS011;18201;50.978;7.034;2023-05-29T07:50:52;14.35;;;5.00;;
31596;SDS011;18201;50.978;7.034;2023-05-29T09:04:43;12.95;;;5.57;;
31596;SDS011;18201;50.978;7.034;2023-05-29T09:05:18;12.20;;;5.28;;
31596;SDS011;18201;50.978;7.034;2023-05-29T09:05:51;14.98;;;5.70;;
31596;SDS011;18201;50.978;7.034;2023-05-29T09:06:28;11.57;;;4.22;;
31596;SDS011;18201;50.978;7.034;2023-05-29T09:06:59;13.65;;;4.25;;
31596;SDS011;18201;50.978;7.034;2023-05-29T09:07:30;14.98;;;4.93;;
31596;SDS011;18201;50.978;7.034;2023-05-29T09:08:02;15.15;;;5.53;;
31596;SDS011;18201;50.978;7.034;2023-05-29T09:08:34;11.23;;;4.75;;
31596;SDS011;18201;50.978;7.034;2023-05-29T09:09:05;8.98;;;4.03;;
31596;SDS011;18201;50.978;7.034;2023-05-29T09:09:37;11.52;;;4.68;;
31596;SDS011;18201;50.978;7.034;2023-05-29T09:10:08;11.68;;;4.93;;
31596;SDS011;18201;50.978;7.034;2023-05-29T09:10:39;12.00;;;4.88;;
31596;SDS011;18201;50.978;7.034;2023-05-29T09:11:11;12.63;;;4.45;;
31596;SDS011;18201;50.978;7.034;2023-05-29T09:11:43;10.68;;;4.90;;
31596;SDS011;18201;50.978;7.034;2023-05-29T09:12:14;15.07;;;5.03;;
31596;SDS011;18201;50.978;7.034;2023-05-29T09:12:47;15.48;;;4.63;;
31596;SDS011;18201;50.978;7.034;2023-05-29T09:13:20;13.32;;;4.13;;
31596;SDS011;18201;50.978;7.034;2023-05-29T10:08:14;10.00;;;4.53;;
31596;SDS011;18201;50.978;7.034;2023-05-29T10:08:48;12.80;;;4.20;;
31596;SDS011;18201;50.978;7.034;2023-05-29T10:09:41;11.40;;;3.65;;
31596;SDS011;18201;50.978;7.034;2023-05-29T10:10:52;8.93;;;3.58;;
31596;SDS011;18201;50.978;7.034;2023-05-29T10:12:02;11.38;;;4.45;;
31596;SDS011;18201;50.978;7.034;2023-05-29T10:12:38;13.95;;;4.10;;
31596;SDS011;18201;50.978;7.034;2023-05-29T10:13:13;12.23;;;4.13;;
31596;SDS011;18201;50.978;7.034;2023-05-29T10:13:47;9.35;;;3.92;;
31596;SDS011;18201;50.978;7.034;2023-05-29T10:14:20;9.07;;;3.67;;
31596;SDS011;18201;50.978;7.034;2023-05-29T10:14:53;12.60;;;3.85;;
31596;SDS011;18201;50.978;7.034;2023-05-29T10:15:27;11.60;;;4.78;;
31596;SDS011;18201;50.978;7.034;2023-05-29T10:16:00;10.02;;;4.07;;
31596;SDS011;18201;50.978;7.034;2023-05-29T10:16:37;12.07;;;4.30;;
31596;SDS011;18201;50.978;7.034;2023-05-29T10:17:13;11.27;;;4.57;;
31596;SDS011;18201;50.978;7.034;2023-05-29T10:17:49;14.93;;;4.63;;
31596;SDS011;18201;50.978;7.034;2023-05-29T10:18:24;10.63;;;4.25;;
31596;SDS011;18201;50.978;7.034;2023-05-29T10:18:59;14.00;;;4.55;;
31596;SDS011;18201;50.978;7.034;2023-05-29T10:19:37;8.82;;;4.50;;
31596;SDS011;18201;50.978;7.034;2023-05-29T10:20:10;8.55;;;3.97;;
31596;SDS011;18201;50.978;7.034;2023-05-29T10:20:46;12.70;;;4.95;;
31596;SDS011;18201;50.978;7.034;2023-05-29T10:21:21;10.82;;;4.40;;
31596;SDS011;18201;50.978;7.034;2023-05-29T10:21:53;9.63;;;4.88;;
31596;SDS011;18201;50.978;7.034;2023-05-29T10:22:26;8.65;;;3.80;;
31596;SDS011;18201;50.978;7.034;2023-05-29T10:23:00;8.15;;;3.55;;
31596;SDS011;18201;50.978;7.034;2023-05-29T10:23:33;11.82;;;4.20;;
31596;SDS011;18201;50.978;7.034;2023-05-29T10:24:06;9.95;;;4.18;;
31596;SDS011;18201;50.978;7.034;2023-05-29T10:24:40;12.25;;;3.85;;
31596;SDS011;18201;50.978;7.034;2023-05-29T10:25:11;10.55;;;4.55;;
31596;SDS011;18201;50.978;7.034;2023-05-29T10:25:44;9.27;;;4.25;;
31596;SDS011;18201;50.978;7.034;2023-05-29T10:26:19;11.75;;;4.15;;
31596;SDS011;18201;50.978;7.034;2023-05-29T10:26:51;12.10;;;4.30;;
31596;SDS011;18201;50.978;7.034;2023-05-29T10:27:26;9.38;;;4.15;;
31596;SDS011;18201;50.978;7.034;2023-05-29T10:27:57;11.00;;;4.75;;
31596;SDS011;18201;50.978;7.034;2023-05-29T10:28:30;9.63;;;4.28;;
31596;SDS011;18201;50.978;7.034;2023-05-29T10:29:05;11.57;;;4.60;;
31596;SDS011;18201;50.978;7.034;2023-05-29T10:29:45;9.55;;;3.47;;
31596;SDS011;18201;50.978;7.034;2023-05-29T10:30:25;16.30;;;4.60;;
31596;SDS011;18201;50.978;7.034;2023-05-29T10:31:03;12.15;;;4.57;;
31596;SDS011;18201;50.978;7.034;2023-05-29T10:31:39;9.18;;;3.88;;
31596;SDS011;18201;50.978;7.034;2023-05-29T10:32:21;9.77;;;3.97;;
31596;SDS011;18201;50.978;7.034;2023-05-29T10:33:14;13.27;;;4.13;;
31596;SDS011;18201;50.978;7.034;2023-05-29T10:34:09;9.18;;;4.25;;
31596;SDS011;18201;50.978;7.034;2023-05-29T10:34:55;9.80;;;4.05;;
31596;SDS011;18201;50.978;7.034;2023-05-29T10:35:37;9.93;;;4.20;;
31596;SDS011;18201;50.978;7.034;2023-05-29T10:36:16;9.18;;;3.67;;
31596;SDS011;18201;50.978;7.034;2023-05-29T10:36:52;9.50;;;4.45;;
31596;SDS011;18201;50.978;7.034;2023-05-29T10:37:33;12.48;;;4.28;;
31596;SDS011;18201;50.978;7.034;2023-05-29T10:38:11;9.80;;;3.92;;
31596;SDS011;18201;50.978;7.034;2023-05-29T10:38:44;10.23;;;3.72;;
31596;SDS011;18201;50.978;7.034;2023-05-29T10:39:16;11.13;;;4.38;;
31596;SDS011;18201;50.978;7.034;2023-05-29T10:39:47;12.00;;;3.85;;
31596;SDS011;18201;50.978;7.034;2023-05-29T10:40:22;12.25;;;4.50;;
31596;SDS011;18201;50.978;7.034;2023-05-29T10:40:54;8.85;;;3.88;;
31596;SDS011;18201;50.978;7.034;2023-05-29T10:41:28;7.72;;;3.70;;
31596;SDS011;18201;50.978;7.034;2023-05-29T10:42:03;10.35;;;4.50;;
31596;SDS011;18201;50.978;7.034;2023-05-29T10:44:37;10.07;;;4.00;;
31596;SDS011;18201;50.978;7.034;2023-05-29T10:45:09;10.43;;;3.67;;
31596;SDS011;18201;50.978;7.034;2023-05-29T10:45:48;11.50;;;4.68;;
31596;SDS011;18201;50.978;7.034;2023-05-29T10:46:32;11.68;;;5.45;;
31596;SDS011;18201;50.978;7.034;2023-05-29T10:47:33;23.70;;;4.85;;
31596;SDS011;18201;50.978;7.034;2023-05-29T10:49:15;9.23;;;4.50;;
31596;SDS011;18201;50.978;7.034;2023-05-29T10:49:48;8.90;;;4.32;;
31596;SDS011;18201;50.978;7.034;2023-05-29T10:50:34;9.77;;;3.80;;
31596;SDS011;18201;50.978;7.034;2023-05-29T10:51:06;9.50;;;4.18;;
31596;SDS011;18201;50.978;7.034;2023-05-29T10:51:39;8.65;;;3.67;;
31596;SDS011;18201;50.978;7.034;2023-05-29T10:52:10;12.27;;;3.90;;
31596;SDS011;18201;50.978;7.034;2023-05-29T10:52:45;11.13;;;3.85;;
31596;SDS011;18201;50.978;7.034;2023-05-29T10:53:17;11.00;;;4.05;;
31596;SDS011;18201;50.978;7.034;2023-05-29T10:53:53;10.55;;;4.20;;
31596;SDS011;18201;50.978;7.034;2023-05-29T10:54:25;10.90;;;4.03;;
31596;SDS011;18201;50.978;7.034;2023-05-29T10:54:57;8.18;;;3.47;;
31596;SDS011;18201;50.978;7.034;2023-05-29T10:55:33;8.18;;;3.55;;
31596;SDS011;18201;50.978;7.034;2023-05-29T10:56:07;6.85;;;3.63;;
31596;SDS011;18201;50.978;7.034;2023-05-29T10:56:39;11.65;;;4.47;;
31596;SDS011;18201;50.978;7.034;2023-05-29T10:57:11;10.32;;;4.43;;
31596;SDS011;18201;50.978;7.034;2023-05-29T10:57:46;7.18;;;3.85;;
31596;SDS011;18201;50.978;7.034;2023-05-29T10:58:19;12.77;;;4.40;;
31596;SDS011;18201;50.978;7.034;2023-05-29T10:58:52;9.52;;;3.72;;
31596;SDS011;18201;50.978;7.034;2023-05-29T10:59:26;7.72;;;4.13;;
31596;SDS011;18201;50.978;7.034;2023-05-29T10:59:59;10.00;;;4.13;;
31596;SDS011;18201;50.978;7.034;2023-05-29T11:00:35;7.70;;;3.72;;
31596;SDS011;18201;50.978;7.034;2023-05-29T11:01:12;6.95;;;3.45;;
31596;SDS011;18201;50.978;7.034;2023-05-29T11:01:43;6.45;;;3.50;;
31596;SDS011;18201;50.978;7.034;2023-05-29T11:02:18;11.65;;;3.85;;
31596;SDS011;18201;50.978;7.034;2023-05-29T11:02:52;8.75;;;3.72;;
31596;SDS011;18201;50.978;7.034;2023-05-29T11:03:24;7.90;;;3.95;;
31596;SDS011;18201;50.978;7.034;2023-05-29T11:05:05;11.20;;;3.83;;
31596;SDS011;18201;50.978;7.034;2023-05-29T11:05:58;14.15;;;3.65;;
31596;SDS011;18201;50.978;7.034;2023-05-29T11:06:30;9.35;;;3.47;;
31596;SDS011;18201;50.978;7.034;2023-05-29T11:07:05;8.48;;;3.75;;
31596;SDS011;18201;50.978;7.034;2023-05-29T11:07:50;9.23;;;3.97;;
31596;SDS011;18201;50.978;7.034;2023-05-29T11:08:28;8.00;;;3.90;;
31596;SDS011;18201;50.978;7.034;2023-05-29T11:09:02;10.05;;;3.95;;
31596;SDS011;18201;50.978;7.034;2023-05-29T11:09:38;7.97;;;4.05;;
31596;SDS011;18201;50.978;7.034;2023-05-29T11:10:13;8.73;;;4.20;;
31596;SDS011;18201;50.978;7.034;2023-05-29T11:10:44;9.77;;;4.20;;
31596;SDS011;18201;50.978;7.034;2023-05-29T11:11:30;8.88;;;3.78;;
31596;SDS011;18201;50.978;7.034;2023-05-29T11:12:14;7.57;;;3.63;;
31596;SDS011;18201;50.978;7.034;2023-05-29T11:12:55;9.27;;;3.92;;
31596;SDS011;18201;50.978;7.034;2023-05-29T11:13:30;8.27;;;4.05;;
31596;SDS011;18201;50.978;7.034;2023-05-29T11:14:04;11.05;;;4.07;;
31596;SDS011;18201;50.978;7.034;2023-05-29T11:14:45;8.57;;;4.05;;
31596;SDS011;18201;50.978;7.034;2023-05-29T11:15:16;12.63;;;4.10;;
31596;SDS011;18201;50.978;7.034;2023-05-29T11:15:48;8.85;;;4.07;;
31596;SDS011;18201;50.978;7.034;2023-05-29T11:16:37;10.60;;;4.20;;
31596;SDS011;18201;50.978;7.034;2023-05-29T11:17:09;8.68;;;4.85;;
31596;SDS011;18201;50.978;7.034;2023-05-29T11:18:03;8.68;;;3.95;;
31596;SDS011;18201;50.978;7.034;2023-05-29T11:18:38;8.18;;;3.60;;
31596;SDS011;18201;50.978;7.034;2023-05-29T11:19:11;8.98;;;3.80;;
31596;SDS011;18201;50.978;7.034;2023-05-29T11:19:44;8.77;;;4.13;;
31596;SDS011;18201;50.978;7.034;2023-05-29T11:20:27;10.18;;;3.65;;
31596;SDS011;18201;50.978;7.034;2023-05-29T11:21:06;8.65;;;3.67;;
31596;SDS011;18201;50.978;7.034;2023-05-29T11:21:53;8.27;;;3.90;;
31596;SDS011;18201;50.978;7.034;2023-05-29T11:22:41;8.82;;;4.10;;
31596;SDS011;18201;50.978;7.034;2023-05-29T11:23:30;8.50;;;3.95;;
31596;SDS011;18201;50.978;7.034;2023-05-29T11:24:03;8.82;;;3.95;;
31596;SDS011;18201;50.978;7.034;2023-05-29T11:24:36;8.98;;;3.42;;
31596;SDS011;18201;50.978;7.034;2023-05-29T11:25:10;9.50;;;3.85;;
31596;SDS011;18201;50.978;7.034;2023-05-29T11:25:44;8.57;;;4.38;;
31596;SDS011;18201;50.978;7.034;2023-05-29T11:26:18;6.55;;;3.50;;
31596;SDS011;18201;50.978;7.034;2023-05-29T11:26:50;9.18;;;3.80;;
31596;SDS011;18201;50.978;7.034;2023-05-29T11:27:22;7.05;;;3.97;;
31596;SDS011;18201;50.978;7.034;2023-05-29T11:27:55;8.15;;;3.80;;
31596;SDS011;18201;50.978;7.034;2023-05-29T11:28:27;8.30;;;4.18;;
31596;SDS011;18201;50.978;7.034;2023-05-29T11:28:58;10.77;;;4.28;;
31596;SDS011;18201;50.978;7.034;2023-05-29T11:29:31;13.75;;;4.32;;
31596;SDS011;18201;50.978;7.034;2023-05-29T11:30:05;11.50;;;3.88;;
31596;SDS011;18201;50.978;7.034;2023-05-29T11:30:44;8.82;;;3.85;;
31596;SDS011;18201;50.978;7.034;2023-05-29T11:31:16;10.35;;;4.03;;
31596;SDS011;18201;50.978;7.034;2023-05-29T11:31:54;11.18;;;4.82;;
31596;SDS011;18201;50.978;7.034;2023-05-29T11:32:28;8.38;;;3.55;;
31596;SDS011;18201;50.978;7.034;2023-05-29T11:33:04;9.63;;;3.90;;
31596;SDS011;18201;50.978;7.034;2023-05-29T11:33:39;10.45;;;4.63;;
31596;SDS011;18201;50.978;7.034;2023-05-29T11:34:14;9.65;;;3.88;;
31596;SDS011;18201;50.978;7.034;2023-05-29T11:34:46;10.68;;;4.63;;
31596;SDS011;18201;50.978;7.034;2023-05-29T11:35:28;9.07;;;4.05;;
31596;SDS011;18201;50.978;7.034;2023-05-29T11:36:17;14.02;;;4.20;;
31596;SDS011;18201;50.978;7.034;2023-05-29T11:36:51;11.18;;;4.30;;
31596;SDS011;18201;50.978;7.034;2023-05-29T11:37:23;8.82;;;3.58;;
31596;SDS011;18201;50.978;7.034;2023-05-29T11:37:54;10.55;;;3.83;;
31596;SDS011;18201;50.978;7.034;2023-05-29T11:38:26;10.00;;;3.67;;
31596;SDS011;18201;50.978;7.034;2023-05-29T11:38:58;13.52;;;4.35;;
31596;SDS011;18201;50.978;7.034;2023-05-29T11:39:30;9.95;;;3.88;;
31596;SDS011;18201;50.978;7.034;2023-05-29T11:40:05;9.90;;;3.65;;
31596;SDS011;18201;50.978;7.034;2023-05-29T11:40:38;8.13;;;3.80;;
31596;SDS011;18201;50.978;7.034;2023-05-29T11:41:10;11.77;;;3.97;;
31596;SDS011;18201;50.978;7.034;2023-05-29T11:41:41;8.23;;;3.55;;
31596;SDS011;18201;50.978;7.034;2023-05-29T11:42:13;13.38;;;4.60;;
31596;SDS011;18201;50.978;7.034;2023-05-29T11:42:44;7.97;;;3.92;;
31596;SDS011;18201;50.978;7.034;2023-05-29T11:43:16;15.82;;;4.10;;
31596;SDS011;18201;50.978;7.034;2023-05-29T11:43:57;7.82;;;3.75;;
31596;SDS011;18201;50.978;7.034;2023-05-29T11:44:28;14.63;;;4.53;;
31596;SDS011;18201;50.978;7.034;2023-05-29T11:45:15;8.88;;;3.70;;
31596;SDS011;18201;50.978;7.034;2023-05-29T11:45:46;8.32;;;4.30;;
31596;SDS011;18201;50.978;7.034;2023-05-29T11:46:18;10.60;;;3.95;;
31596;SDS011;18201;50.978;7.034;2023-05-29T11:46:58;10.43;;;3.97;;
31596;SDS011;18201;50.978;7.034;2023-05-29T11:47:32;10.20;;;4.07;;
31596;SDS011;18201;50.978;7.034;2023-05-29T11:48:21;7.68;;;3.50;;
31596;SDS011;18201;50.978;7.034;2023-05-29T11:48:53;11.02;;;4.38;;
31596;SDS011;18201;50.978;7.034;2023-05-29T11:49:27;9.98;;;4.13;;
31596;SDS011;18201;50.978;7.034;2023-05-29T11:49:58;6.88;;;4.38;;
31596;SDS011;18201;50.978;7.034;2023-05-29T11:50:31;9.73;;;3.85;;
31596;SDS011;18201;50.978;7.034;2023-05-29T11:51:03;7.07;;;3.67;;
31596;SDS011;18201;50.978;7.034;2023-05-29T11:51:36;10.93;;;3.80;;
31596;SDS011;18201;50.978;7.034;2023-05-29T11:52:07;10.50;;;4.05;;
31596;SDS011;18201;50.978;7.034;2023-05-29T11:52:44;6.97;;;3.67;;
31596;SDS011;18201;50.978;7.034;2023-05-29T11:53:17;17.23;;;4.30;;
31596;SDS011;18201;50.978;7.034;2023-05-29T11:53:48;10.85;;;4.05;;
31596;SDS011;18201;50.978;7.034;2023-05-29T11:54:23;9.55;;;4.15;;
31596;SDS011;18201;50.978;7.034;2023-05-29T11:54:53;8.90;;;3.72;;
31596;SDS011;18201;50.978;7.034;2023-05-29T11:55:30;8.70;;;3.90;;
31596;SDS011;18201;50.978;7.034;2023-05-29T11:56:07;11.00;;;3.95;;
31596;SDS011;18201;50.978;7.034;2023-05-29T11:56:38;9.88;;;3.92;;
31596;SDS011;18201;50.978;7.034;2023-05-29T11:57:11;9.85;;;4.20;;
31596;SDS011;18201;50.978;7.034;2023-05-29T11:57:41;9.43;;;4.72;;
31596;SDS011;18201;50.978;7.034;2023-05-29T11:58:12;8.98;;;3.90;;
31596;SDS011;18201;50.978;7.034;2023-05-29T11:58:46;9.10;;;4.13;;
31596;SDS011;18201;50.978;7.034;2023-05-29T11:59:18;11.35;;;3.90;;
31596;SDS011;18201;50.978;7.034;2023-05-29T11:59:49;9.90;;;3.90;;
31596;SDS011;18201;50.978;7.034;2023-05-29T12:00:23;12.95;;;3.95;;
31596;SDS011;18201;50.978;7.034;2023-05-29T12:00:54;10.13;;;4.10;;
31596;SDS011;18201;50.978;7.034;2023-05-29T12:01:25;9.32;;;4.10;;
31596;SDS011;18201;50.978;7.034;2023-05-29T12:01:58;8.48;;;4.00;;
31596;SDS011;18201;50.978;7.034;2023-05-29T12:02:32;10.00;;;3.53;;
31596;SDS011;18201;50.978;7.034;2023-05-29T12:03:03;7.43;;;3.70;;
31596;SDS011;18201;50.978;7.034;2023-05-29T12:03:37;11.73;;;4.25;;
31596;SDS011;18201;50.978;7.034;2023-05-29T12:04:15;10.27;;;3.53;;
31596;SDS011;18201;50.978;7.034;2023-05-29T12:04:59;10.27;;;3.67;;
31596;SDS011;18201;50.978;7.034;2023-05-29T12:05:32;10.98;;;3.88;;
31596;SDS011;18201;50.978;7.034;2023-05-29T12:06:03;9.57;;;3.90;;
31596;SDS011;18201;50.978;7.034;2023-05-29T12:06:36;11.32;;;3.90;;
31596;SDS011;18201;50.978;7.034;2023-05-29T12:07:16;8.00;;;3.70;;
31596;SDS011;18201;50.978;7.034;2023-05-29T12:07:48;11.63;;;3.67;;
31596;SDS011;18201;50.978;7.034;2023-05-29T12:08:21;9.65;;;3.47;;
31596;SDS011;18201;50.978;7.034;2023-05-29T12:08:53;8.20;;;3.40;;
31596;SDS011;18201;50.978;7.034;2023-05-29T12:09:25;9.85;;;4.53;;
31596;SDS011;18201;50.978;7.034;2023-05-29T12:09:56;11.80;;;3.70;;
31596;SDS011;18201;50.978;7.034;2023-05-29T12:10:27;17.27;;;4.97;;
31596;SDS011;18201;50.978;7.034;2023-05-29T12:10:59;9.35;;;3.60;;
31596;SDS011;18201;50.978;7.034;2023-05-29T12:11:30;6.85;;;3.53;;
31596;SDS011;18201;50.978;7.034;2023-05-29T12:12:02;9.48;;;4.10;;
31596;SDS011;18201;50.978;7.034;2023-05-29T12:12:33;11.48;;;3.63;;
31596;SDS011;18201;50.978;7.034;2023-05-29T12:13:05;6.80;;;3.35;;
31596;SDS011;18201;50.978;7.034;2023-05-29T12:13:36;8.43;;;3.63;;
31596;SDS011;18201;50.978;7.034;2023-05-29T12:14:08;10.55;;;3.70;;
31596;SDS011;18201;50.978;7.034;2023-05-29T12:14:39;8.98;;;3.85;;
31596;SDS011;18201;50.978;7.034;2023-05-29T12:15:10;7.80;;;4.13;;
31596;SDS011;18201;50.978;7.034;2023-05-29T12:15:44;7.53;;;3.30;;
31596;SDS011;18201;50.978;7.034;2023-05-29T12:16:16;9.38;;;3.72;;
31596;SDS011;18201;50.978;7.034;2023-05-29T12:16:49;6.28;;;3.17;;
31596;SDS011;18201;50.978;7.034;2023-05-29T12:17:20;14.00;;;4.13;;
31596;SDS011;18201;50.978;7.034;2023-05-29T12:17:52;20.77;;;4.05;;
31596;SDS011;18201;50.978;7.034;2023-05-29T12:18:24;11.70;;;4.20;;
31596;SDS011;18201;50.978;7.034;2023-05-29T12:18:56;12.13;;;3.95;;
31596;SDS011;18201;50.978;7.034;2023-05-29T12:19:27;8.85;;;3.58;;
31596;SDS011;18201;50.978;7.034;2023-05-29T12:19:58;7.72;;;3.88;;
31596;SDS011;18201;50.978;7.034;2023-05-29T12:20:30;7.28;;;3.53;;
31596;SDS011;18201;50.978;7.034;2023-05-29T12:21:02;15.00;;;4.15;;
31596;SDS011;18201;50.978;7.034;2023-05-29T12:21:34;9.88;;;3.80;;
31596;SDS011;18201;50.978;7.034;2023-05-29T12:22:07;8.65;;;3.47;;
31596;SDS011;18201;50.978;7.034;2023-05-29T12:22:38;6.60;;;3.30;;
31596;SDS011;18201;50.978;7.034;2023-05-29T12:23:11;9.15;;;3.60;;
31596;SDS011;18201;50.978;7.034;2023-05-29T12:23:42;8.05;;;3.70;;
31596;SDS011;18201;50.978;7.034;2023-05-29T12:24:13;8.68;;;3.80;;
31596;SDS011;18201;50.978;7.034;2023-05-29T12:24:45;9.05;;;3.80;;
31596;SDS011;18201;50.978;7.034;2023-05-29T12:25:17;9.52;;;3.58;;
31596;SDS011;18201;50.978;7.034;2023-05-29T12:25:50;12.55;;;3.38;;
31596;SDS011;18201;50.978;7.034;2023-05-29T12:26:23;7.68;;;3.20;;
31596;SDS011;18201;50.978;7.034;2023-05-29T12:26:56;7.53;;;3.50;;
31596;SDS011;18201;50.978;7.034;2023-05-29T12:27:27;10.93;;;3.70;;
31596;SDS011;18201;50.978;7.034;2023-05-29T12:27:59;9.88;;;3.60;;
31596;SDS011;18201;50.978;7.034;2023-05-29T12:28:30;6.80;;;3.47;;
31596;SDS011;18201;50.978;7.034;2023-05-29T12:29:02;10.85;;;3.17;;
31596;SDS011;18201;50.978;7.034;2023-05-29T12:29:35;9.35;;;3.53;;
31596;SDS011;18201;50.978;7.034;2023-05-29T12:30:06;9.02;;;3.97;;
31596;SDS011;18201;50.978;7.034;2023-05-29T12:30:38;9.60;;;3.90;;
31596;SDS011;18201;50.978;7.034;2023-05-29T12:31:13;11.65;;;3.75;;
31596;SDS011;18201;50.978;7.034;2023-05-29T12:31:44;9.05;;;3.85;;
31596;SDS011;18201;50.978;7.034;2023-05-29T12:32:16;6.55;;;3.13;;
31596;SDS011;18201;50.978;7.034;2023-05-29T12:32:48;10.95;;;4.00;;
31596;SDS011;18201;50.978;7.034;2023-05-29T12:33:27;9.15;;;3.70;;
31596;SDS011;18201;50.978;7.034;2023-05-29T12:34:33;7.78;;;3.15;;
31596;SDS011;18201;50.978;7.034;2023-05-29T12:35:09;9.95;;;3.40;;
31596;SDS011;18201;50.978;7.034;2023-05-29T12:35:45;10.68;;;3.40;;
31596;SDS011;18201;50.978;7.034;2023-05-29T12:36:17;7.43;;;3.65;;
31596;SDS011;18201;50.978;7.034;2023-05-29T12:36:47;7.68;;;3.70;;
31596;SDS011;18201;50.978;7.034;2023-05-29T12:37:20;10.35;;;3.95;;
31596;SDS011;18201;50.978;7.034;2023-05-29T12:37:53;12.05;;;3.78;;
31596;SDS011;18201;50.978;7.034;2023-05-29T12:38:25;9.75;;;3.80;;
31596;SDS011;18201;50.978;7.034;2023-05-29T12:38:58;6.70;;;3.28;;
31596;SDS011;18201;50.978;7.034;2023-05-29T12:39:28;9.38;;;2.97;;
31596;SDS011;18201;50.978;7.034;2023-05-29T12:40:10;6.93;;;3.28;;
31596;SDS011;18201;50.978;7.034;2023-05-29T12:40:47;13.23;;;3.83;;
31596;SDS011;18201;50.978;7.034;2023-05-29T12:41:25;6.35;;;3.00;;